sensor_id;sensor_type;location;lat;lon;timestamp;P1;durP1;ratioP1;P2;durP2;ratioP2
56667;SDS011;42542;48.360;10.958;2022-12-05T00:04:36;21.13;;;6.90;;
56667;SDS011;42542;48.360;10.958;2022-12-05T00:07:38;19.70;;;6.28;;
56667;SDS011;42542;48.360;10.958;2022-12-05T00:10:40;21.38;;;6.50;;
56667;SDS011;42542;48.360;10.958;2022-12-05T00:13:42;20.88;;;6.65;;
56667;SDS011;42542;48.360;10.958;2022-12-05T00:16:44;19.93;;;6.27;;
56667;SDS011;42542;48.360;10.958;2022-12-05T00:19:46;19.80;;;6.80;;
56667;SDS011;42542;48.360;10.958;2022-12-05T00:22:52;18.10;;;5.78;;
56667;SDS011;42542;48.360;10.958;2022-12-05T00:25:54;20.10;;;6.30;;
56667;SDS011;42542;48.360;10.958;2022-12-05T00:28:56;22.13;;;6.53;;
56667;SDS011;42542;48.360;10.958;2022-12-05T00:31:58;21.33;;;6.75;;
56667;SDS011;42542;48.360;10.958;2022-12-05T00:35:00;20.33;;;6.68;;
56667;SDS011;42542;48.360;10.958;2022-12-05T00:38:01;17.85;;;6.22;;
56667;SDS011;42542;48.360;10.958;2022-12-05T00:41:04;19.20;;;5.80;;
56667;SDS011;42542;48.360;10.958;2022-12-05T00:44:07;20.35;;;6.35;;
56667;SDS011;42542;48.360;10.958;2022-12-05T00:47:10;21.20;;;6.70;;
56667;SDS011;42542;48.360;10.958;2022-12-05T00:50:12;20.30;;;6.65;;
56667;SDS011;42542;48.360;10.958;2022-12-05T00:53:13;20.05;;;7.10;;
56667;SDS011;42542;48.360;10.958;2022-12-05T00:56:16;22.33;;;7.20;;
56667;SDS011;42542;48.360;10.958;2022-12-05T00:59:19;23.77;;;7.28;;
56667;SDS011;42542;48.360;10.958;2022-12-05T01:02:21;22.33;;;7.40;;
56667;SDS011;42542;48.360;10.958;2022-12-05T01:05:22;21.52;;;7.00;;
56667;SDS011;42542;48.360;10.958;2022-12-05T01:08:24;20.70;;;6.53;;
56667;SDS011;42542;48.360;10.958;2022-12-05T01:11:25;22.23;;;6.43;;
56667;SDS011;42542;48.360;10.958;2022-12-05T01:14:28;19.42;;;6.22;;
56667;SDS011;42542;48.360;10.958;2022-12-05T01:17:29;20.50;;;6.30;;
56667;SDS011;42542;48.360;10.958;2022-12-05T01:20:31;22.33;;;7.15;;
56667;SDS011;42542;48.360;10.958;2022-12-05T01:23:33;22.00;;;7.18;;
56667;SDS011;42542;48.360;10.958;2022-12-05T01:26:34;22.87;;;6.70;;
56667;SDS011;42542;48.360;10.958;2022-12-05T01:29:36;22.40;;;6.97;;
56667;SDS011;42542;48.360;10.958;2022-12-05T01:32:38;20.85;;;6.90;;
56667;SDS011;42542;48.360;10.958;2022-12-05T01:35:39;19.67;;;7.28;;
56667;SDS011;42542;48.360;10.958;2022-12-05T01:38:42;25.30;;;7.65;;
56667;SDS011;42542;48.360;10.958;2022-12-05T01:41:45;23.38;;;7.60;;
56667;SDS011;42542;48.360;10.958;2022-12-05T01:47:51;24.37;;;8.43;;
56667;SDS011;42542;48.360;10.958;2022-12-05T01:50:54;27.20;;;8.05;;
56667;SDS011;42542;48.360;10.958;2022-12-05T01:53:57;29.98;;;8.55;;
56667;SDS011;42542;48.360;10.958;2022-12-05T01:57:00;26.90;;;7.80;;
56667;SDS011;42542;48.360;10.958;2022-12-05T02:00:09;25.23;;;7.93;;
56667;SDS011;42542;48.360;10.958;2022-12-05T02:03:16;29.92;;;9.38;;
56667;SDS011;42542;48.360;10.958;2022-12-05T02:06:20;27.67;;;8.88;;
56667;SDS011;42542;48.360;10.958;2022-12-05T02:09:23;29.75;;;9.15;;
56667;SDS011;42542;48.360;10.958;2022-12-05T02:12:25;30.77;;;8.93;;
56667;SDS011;42542;48.360;10.958;2022-12-05T02:15:34;30.25;;;9.32;;
56667;SDS011;42542;48.360;10.958;2022-12-05T02:45:36;27.80;;;8.50;;
56667;SDS011;42542;48.360;10.958;2022-12-05T02:48:40;23.05;;;7.78;;
56667;SDS011;42542;48.360;10.958;2022-12-05T02:51:47;24.83;;;8.03;;
56667;SDS011;42542;48.360;10.958;2022-12-05T02:54:53;22.92;;;7.20;;
56667;SDS011;42542;48.360;10.958;2022-12-05T02:57:57;25.77;;;7.72;;
56667;SDS011;42542;48.360;10.958;2022-12-05T03:01:01;24.33;;;7.63;;
56667;SDS011;42542;48.360;10.958;2022-12-05T03:04:05;22.02;;;7.05;;
56667;SDS011;42542;48.360;10.958;2022-12-05T03:07:10;21.70;;;6.97;;
56667;SDS011;42542;48.360;10.958;2022-12-05T03:10:16;21.25;;;6.95;;
56667;SDS011;42542;48.360;10.958;2022-12-05T03:13:36;22.77;;;7.45;;
56667;SDS011;42542;48.360;10.958;2022-12-05T03:16:46;22.60;;;7.40;;
56667;SDS011;42542;48.360;10.958;2022-12-05T03:23:35;21.40;;;6.40;;
56667;SDS011;42542;48.360;10.958;2022-12-05T03:30:24;22.48;;;6.97;;
56667;SDS011;42542;48.360;10.958;2022-12-05T03:33:27;23.03;;;6.90;;
56667;SDS011;42542;48.360;10.958;2022-12-05T03:36:34;20.80;;;6.55;;
56667;SDS011;42542;48.360;10.958;2022-12-05T03:39:40;20.52;;;6.88;;
56667;SDS011;42542;48.360;10.958;2022-12-05T03:42:49;22.45;;;6.90;;
56667;SDS011;42542;48.360;10.958;2022-12-05T03:46:02;17.63;;;5.85;;
56667;SDS011;42542;48.360;10.958;2022-12-05T03:49:21;19.80;;;7.00;;
56667;SDS011;42542;48.360;10.958;2022-12-05T03:53:17;20.45;;;6.57;;
56667;SDS011;42542;48.360;10.958;2022-12-05T03:56:22;23.13;;;6.60;;
56667;SDS011;42542;48.360;10.958;2022-12-05T03:59:33;24.95;;;6.65;;
56667;SDS011;42542;48.360;10.958;2022-12-05T04:05:53;21.50;;;6.70;;
56667;SDS011;42542;48.360;10.958;2022-12-05T04:09:05;20.23;;;6.32;;
56667;SDS011;42542;48.360;10.958;2022-12-05T04:12:27;24.90;;;7.53;;
56667;SDS011;42542;48.360;10.958;2022-12-05T04:15:31;23.33;;;7.28;;
56667;SDS011;42542;48.360;10.958;2022-12-05T04:18:57;23.88;;;7.15;;
56667;SDS011;42542;48.360;10.958;2022-12-05T04:22:03;20.85;;;7.35;;
56667;SDS011;42542;48.360;10.958;2022-12-05T04:25:06;25.88;;;7.68;;
56667;SDS011;42542;48.360;10.958;2022-12-05T04:28:40;23.93;;;7.93;;
56667;SDS011;42542;48.360;10.958;2022-12-05T04:31:52;23.08;;;7.78;;
56667;SDS011;42542;48.360;10.958;2022-12-05T04:35:07;24.95;;;7.43;;
56667;SDS011;42542;48.360;10.958;2022-12-05T04:38:24;21.03;;;7.23;;
56667;SDS011;42542;48.360;10.958;2022-12-05T04:41:33;26.38;;;7.80;;
56667;SDS011;42542;48.360;10.958;2022-12-05T04:45:21;25.40;;;7.32;;
56667;SDS011;42542;48.360;10.958;2022-12-05T04:48:09;24.75;;;8.52;;
56667;SDS011;42542;48.360;10.958;2022-12-05T04:51:15;21.83;;;7.88;;
56667;SDS011;42542;48.360;10.958;2022-12-05T04:54:26;22.85;;;7.22;;
56667;SDS011;42542;48.360;10.958;2022-12-05T04:57:36;24.35;;;7.68;;
56667;SDS011;42542;48.360;10.958;2022-12-05T05:00:47;23.77;;;7.77;;
56667;SDS011;42542;48.360;10.958;2022-12-05T05:04:01;27.20;;;8.10;;
56667;SDS011;42542;48.360;10.958;2022-12-05T05:07:08;22.30;;;7.40;;
56667;SDS011;42542;48.360;10.958;2022-12-05T05:10:13;23.67;;;7.70;;
56667;SDS011;42542;48.360;10.958;2022-12-05T05:13:18;25.38;;;8.15;;
56667;SDS011;42542;48.360;10.958;2022-12-05T05:19:25;25.25;;;7.90;;
56667;SDS011;42542;48.360;10.958;2022-12-05T05:22:27;27.58;;;8.00;;
56667;SDS011;42542;48.360;10.958;2022-12-05T05:25:28;22.27;;;7.60;;
56667;SDS011;42542;48.360;10.958;2022-12-05T05:28:30;27.05;;;8.00;;
56667;SDS011;42542;48.360;10.958;2022-12-05T05:31:32;23.20;;;7.90;;
56667;SDS011;42542;48.360;10.958;2022-12-05T05:34:33;23.90;;;7.72;;
56667;SDS011;42542;48.360;10.958;2022-12-05T05:37:35;27.48;;;9.52;;
56667;SDS011;42542;48.360;10.958;2022-12-05T05:40:39;24.10;;;8.27;;
56667;SDS011;42542;48.360;10.958;2022-12-05T05:43:41;29.25;;;8.77;;
56667;SDS011;42542;48.360;10.958;2022-12-05T05:46:43;25.23;;;8.25;;
56667;SDS011;42542;48.360;10.958;2022-12-05T05:49:45;27.08;;;8.00;;
56667;SDS011;42542;48.360;10.958;2022-12-05T05:52:46;24.40;;;7.95;;
56667;SDS011;42542;48.360;10.958;2022-12-05T05:55:48;31.38;;;9.18;;
56667;SDS011;42542;48.360;10.958;2022-12-05T05:58:53;48.20;;;15.45;;
56667;SDS011;42542;48.360;10.958;2022-12-05T06:01:59;45.53;;;14.43;;
56667;SDS011;42542;48.360;10.958;2022-12-05T06:05:01;37.67;;;14.55;;
56667;SDS011;42542;48.360;10.958;2022-12-05T06:08:03;29.58;;;10.55;;
56667;SDS011;42542;48.360;10.958;2022-12-05T06:11:16;30.10;;;10.40;;
56667;SDS011;42542;48.360;10.958;2022-12-05T06:14:26;26.80;;;9.18;;
56667;SDS011;42542;48.360;10.958;2022-12-05T06:17:28;25.20;;;8.57;;
56667;SDS011;42542;48.360;10.958;2022-12-05T06:20:30;27.80;;;8.45;;
56667;SDS011;42542;48.360;10.958;2022-12-05T06:23:32;23.95;;;8.05;;
56667;SDS011;42542;48.360;10.958;2022-12-05T06:26:33;24.17;;;7.50;;
56667;SDS011;42542;48.360;10.958;2022-12-05T06:29:35;25.70;;;8.77;;
56667;SDS011;42542;48.360;10.958;2022-12-05T06:32:36;24.03;;;8.50;;
56667;SDS011;42542;48.360;10.958;2022-12-05T06:35:38;21.52;;;7.70;;
56667;SDS011;42542;48.360;10.958;2022-12-05T06:38:40;26.63;;;8.95;;
56667;SDS011;42542;48.360;10.958;2022-12-05T06:41:43;20.23;;;7.57;;
56667;SDS011;42542;48.360;10.958;2022-12-05T06:44:44;21.67;;;7.72;;
56667;SDS011;42542;48.360;10.958;2022-12-05T06:47:46;23.02;;;7.85;;
56667;SDS011;42542;48.360;10.958;2022-12-05T06:50:51;20.48;;;7.38;;
56667;SDS011;42542;48.360;10.958;2022-12-05T06:53:54;25.17;;;8.38;;
56667;SDS011;42542;48.360;10.958;2022-12-05T06:56:55;23.05;;;7.40;;
56667;SDS011;42542;48.360;10.958;2022-12-05T06:59:57;21.40;;;7.55;;
56667;SDS011;42542;48.360;10.958;2022-12-05T07:03:22;24.73;;;7.70;;
56667;SDS011;42542;48.360;10.958;2022-12-05T07:06:23;25.30;;;8.32;;
56667;SDS011;42542;48.360;10.958;2022-12-05T07:09:25;26.08;;;8.25;;
56667;SDS011;42542;48.360;10.958;2022-12-05T07:12:45;20.30;;;7.83;;
56667;SDS011;42542;48.360;10.958;2022-12-05T07:15:47;22.38;;;8.02;;
56667;SDS011;42542;48.360;10.958;2022-12-05T07:18:49;22.15;;;8.40;;
56667;SDS011;42542;48.360;10.958;2022-12-05T07:21:52;24.63;;;8.07;;
56667;SDS011;42542;48.360;10.958;2022-12-05T07:24:53;22.58;;;7.85;;
56667;SDS011;42542;48.360;10.958;2022-12-05T07:27:55;24.98;;;8.38;;
56667;SDS011;42542;48.360;10.958;2022-12-05T07:31:00;25.45;;;8.45;;
56667;SDS011;42542;48.360;10.958;2022-12-05T07:34:02;24.17;;;7.87;;
56667;SDS011;42542;48.360;10.958;2022-12-05T07:37:04;26.75;;;8.88;;
56667;SDS011;42542;48.360;10.958;2022-12-05T07:40:06;24.63;;;8.60;;
56667;SDS011;42542;48.360;10.958;2022-12-05T07:43:08;23.73;;;8.03;;
56667;SDS011;42542;48.360;10.958;2022-12-05T07:46:10;24.50;;;7.97;;
56667;SDS011;42542;48.360;10.958;2022-12-05T07:49:12;27.42;;;8.88;;
56667;SDS011;42542;48.360;10.958;2022-12-05T07:52:16;26.85;;;9.20;;
56667;SDS011;42542;48.360;10.958;2022-12-05T07:55:17;24.50;;;8.25;;
56667;SDS011;42542;48.360;10.958;2022-12-05T07:58:19;25.25;;;8.43;;
56667;SDS011;42542;48.360;10.958;2022-12-05T08:01:24;26.75;;;9.65;;
56667;SDS011;42542;48.360;10.958;2022-12-05T08:04:29;24.23;;;8.73;;
56667;SDS011;42542;48.360;10.958;2022-12-05T08:07:31;25.35;;;9.13;;
56667;SDS011;42542;48.360;10.958;2022-12-05T08:10:33;26.10;;;8.40;;
56667;SDS011;42542;48.360;10.958;2022-12-05T08:13:35;23.07;;;8.20;;
56667;SDS011;42542;48.360;10.958;2022-12-05T08:16:37;24.92;;;8.93;;
56667;SDS011;42542;48.360;10.958;2022-12-05T08:19:38;25.60;;;8.77;;
56667;SDS011;42542;48.360;10.958;2022-12-05T08:22:40;26.67;;;9.07;;
56667;SDS011;42542;48.360;10.958;2022-12-05T08:25:42;26.85;;;8.55;;
56667;SDS011;42542;48.360;10.958;2022-12-05T08:28:43;30.20;;;10.80;;
56667;SDS011;42542;48.360;10.958;2022-12-05T08:31:47;25.50;;;9.50;;
56667;SDS011;42542;48.360;10.958;2022-12-05T08:34:49;25.77;;;9.33;;
56667;SDS011;42542;48.360;10.958;2022-12-05T08:37:51;24.70;;;9.45;;
56667;SDS011;42542;48.360;10.958;2022-12-05T08:40:53;22.67;;;8.32;;
56667;SDS011;42542;48.360;10.958;2022-12-05T08:43:55;23.40;;;8.70;;
56667;SDS011;42542;48.360;10.958;2022-12-05T08:46:58;23.73;;;8.63;;
56667;SDS011;42542;48.360;10.958;2022-12-05T08:49:59;25.05;;;8.55;;
56667;SDS011;42542;48.360;10.958;2022-12-05T08:53:01;24.80;;;9.38;;
56667;SDS011;42542;48.360;10.958;2022-12-05T08:56:03;23.08;;;9.48;;
56667;SDS011;42542;48.360;10.958;2022-12-05T08:59:06;23.50;;;8.60;;
56667;SDS011;42542;48.360;10.958;2022-12-05T09:02:09;26.50;;;9.15;;
56667;SDS011;42542;48.360;10.958;2022-12-05T09:05:11;25.93;;;8.73;;
56667;SDS011;42542;48.360;10.958;2022-12-05T09:08:28;23.73;;;8.85;;
56667;SDS011;42542;48.360;10.958;2022-12-05T09:11:31;24.33;;;8.70;;
56667;SDS011;42542;48.360;10.958;2022-12-05T09:14:35;23.10;;;9.03;;
56667;SDS011;42542;48.360;10.958;2022-12-05T09:17:37;25.50;;;9.20;;
56667;SDS011;42542;48.360;10.958;2022-12-05T09:20:40;23.15;;;8.65;;
56667;SDS011;42542;48.360;10.958;2022-12-05T09:23:41;24.70;;;8.93;;
56667;SDS011;42542;48.360;10.958;2022-12-05T09:26:43;28.23;;;9.13;;
56667;SDS011;42542;48.360;10.958;2022-12-05T09:29:45;23.52;;;8.75;;
56667;SDS011;42542;48.360;10.958;2022-12-05T09:32:47;24.63;;;9.00;;
56667;SDS011;42542;48.360;10.958;2022-12-05T09:35:49;24.80;;;8.60;;
56667;SDS011;42542;48.360;10.958;2022-12-05T09:38:51;22.50;;;8.43;;
56667;SDS011;42542;48.360;10.958;2022-12-05T09:45:14;25.23;;;8.47;;
56667;SDS011;42542;48.360;10.958;2022-12-05T09:48:22;24.48;;;8.52;;
56667;SDS011;42542;48.360;10.958;2022-12-05T09:51:24;24.85;;;8.80;;
56667;SDS011;42542;48.360;10.958;2022-12-05T09:54:26;23.05;;;8.30;;
56667;SDS011;42542;48.360;10.958;2022-12-05T09:57:31;23.00;;;8.18;;
56667;SDS011;42542;48.360;10.958;2022-12-05T10:00:37;23.23;;;8.30;;
56667;SDS011;42542;48.360;10.958;2022-12-05T10:03:42;21.30;;;7.90;;
56667;SDS011;42542;48.360;10.958;2022-12-05T10:13:44;23.67;;;8.25;;
56667;SDS011;42542;48.360;10.958;2022-12-05T10:17:21;26.03;;;8.93;;
56667;SDS011;42542;48.360;10.958;2022-12-05T10:20:32;23.38;;;8.30;;
56667;SDS011;42542;48.360;10.958;2022-12-05T10:23:51;22.60;;;8.73;;
56667;SDS011;42542;48.360;10.958;2022-12-05T10:26:59;22.75;;;8.48;;
56667;SDS011;42542;48.360;10.958;2022-12-05T10:33:14;23.67;;;8.98;;
56667;SDS011;42542;48.360;10.958;2022-12-05T10:36:22;21.02;;;8.73;;
56667;SDS011;42542;48.360;10.958;2022-12-05T10:39:25;22.40;;;8.47;;
56667;SDS011;42542;48.360;10.958;2022-12-05T10:42:28;26.55;;;8.98;;
56667;SDS011;42542;48.360;10.958;2022-12-05T10:45:32;23.23;;;8.57;;
56667;SDS011;42542;48.360;10.958;2022-12-05T10:48:41;22.97;;;8.13;;
56667;SDS011;42542;48.360;10.958;2022-12-05T10:51:43;21.92;;;8.07;;
56667;SDS011;42542;48.360;10.958;2022-12-05T10:54:46;24.33;;;9.00;;
56667;SDS011;42542;48.360;10.958;2022-12-05T10:57:53;27.48;;;10.07;;
56667;SDS011;42542;48.360;10.958;2022-12-05T11:01:23;23.35;;;9.27;;
56667;SDS011;42542;48.360;10.958;2022-12-05T11:08:04;24.10;;;7.97;;
56667;SDS011;42542;48.360;10.958;2022-12-05T11:11:00;19.63;;;7.60;;
56667;SDS011;42542;48.360;10.958;2022-12-05T11:14:04;20.77;;;7.25;;
56667;SDS011;42542;48.360;10.958;2022-12-05T11:17:09;20.50;;;7.97;;
56667;SDS011;42542;48.360;10.958;2022-12-05T11:20:37;22.40;;;7.40;;
56667;SDS011;42542;48.360;10.958;2022-12-05T11:23:40;20.30;;;7.43;;
56667;SDS011;42542;48.360;10.958;2022-12-05T11:26:41;20.75;;;7.90;;
56667;SDS011;42542;48.360;10.958;2022-12-05T11:29:54;19.25;;;7.57;;
56667;SDS011;42542;48.360;10.958;2022-12-05T11:33:32;19.60;;;7.13;;
56667;SDS011;42542;48.360;10.958;2022-12-05T11:36:33;19.80;;;7.38;;
56667;SDS011;42542;48.360;10.958;2022-12-05T11:39:39;19.45;;;7.45;;
56667;SDS011;42542;48.360;10.958;2022-12-05T11:46:08;19.63;;;6.72;;
56667;SDS011;42542;48.360;10.958;2022-12-05T11:59:50;20.90;;;8.43;;
56667;SDS011;42542;48.360;10.958;2022-12-05T12:03:23;20.77;;;7.80;;
56667;SDS011;42542;48.360;10.958;2022-12-05T12:06:49;19.25;;;7.00;;
56667;SDS011;42542;48.360;10.958;2022-12-05T12:20:13;20.00;;;7.60;;
56667;SDS011;42542;48.360;10.958;2022-12-05T12:30:21;18.65;;;6.78;;
56667;SDS011;42542;48.360;10.958;2022-12-05T12:33:29;18.80;;;6.55;;
56667;SDS011;42542;48.360;10.958;2022-12-05T12:40:03;13.73;;;5.40;;
56667;SDS011;42542;48.360;10.958;2022-12-05T12:43:21;14.45;;;5.68;;
56667;SDS011;42542;48.360;10.958;2022-12-05T12:46:56;14.00;;;5.32;;
56667;SDS011;42542;48.360;10.958;2022-12-05T12:50:43;13.77;;;4.83;;
56667;SDS011;42542;48.360;10.958;2022-12-05T12:57:07;12.63;;;4.57;;
56667;SDS011;42542;48.360;10.958;2022-12-05T13:07:35;12.98;;;4.60;;
56667;SDS011;42542;48.360;10.958;2022-12-05T13:10:42;11.32;;;4.20;;
56667;SDS011;42542;48.360;10.958;2022-12-05T13:13:53;10.73;;;4.03;;
56667;SDS011;42542;48.360;10.958;2022-12-05T13:16:57;14.77;;;4.78;;
56667;SDS011;42542;48.360;10.958;2022-12-05T13:20:02;13.25;;;4.75;;
56667;SDS011;42542;48.360;10.958;2022-12-05T13:23:04;11.83;;;4.40;;
56667;SDS011;42542;48.360;10.958;2022-12-05T13:26:10;11.18;;;4.50;;
56667;SDS011;42542;48.360;10.958;2022-12-05T13:29:20;12.65;;;4.60;;
56667;SDS011;42542;48.360;10.958;2022-12-05T13:32:30;12.17;;;4.43;;
56667;SDS011;42542;48.360;10.958;2022-12-05T13:35:35;10.65;;;4.20;;
56667;SDS011;42542;48.360;10.958;2022-12-05T13:39:17;11.95;;;4.32;;
56667;SDS011;42542;48.360;10.958;2022-12-05T13:42:41;11.07;;;4.10;;
56667;SDS011;42542;48.360;10.958;2022-12-05T13:46:18;10.23;;;3.60;;
56667;SDS011;42542;48.360;10.958;2022-12-05T13:49:26;12.43;;;3.67;;
56667;SDS011;42542;48.360;10.958;2022-12-05T13:52:42;8.98;;;3.63;;
56667;SDS011;42542;48.360;10.958;2022-12-05T13:55:59;9.03;;;3.10;;
56667;SDS011;42542;48.360;10.958;2022-12-05T13:59:07;9.63;;;3.60;;
56667;SDS011;42542;48.360;10.958;2022-12-05T14:02:44;10.10;;;3.75;;
56667;SDS011;42542;48.360;10.958;2022-12-05T14:05:44;9.80;;;3.43;;
56667;SDS011;42542;48.360;10.958;2022-12-05T14:08:50;10.25;;;3.83;;
56667;SDS011;42542;48.360;10.958;2022-12-05T14:15:24;11.02;;;4.00;;
56667;SDS011;42542;48.360;10.958;2022-12-05T14:18:42;17.48;;;6.03;;
56667;SDS011;42542;48.360;10.958;2022-12-05T14:22:15;13.32;;;4.45;;
56667;SDS011;42542;48.360;10.958;2022-12-05T14:25:34;16.30;;;4.35;;
56667;SDS011;42542;48.360;10.958;2022-12-05T14:32:41;25.52;;;11.32;;
56667;SDS011;42542;48.360;10.958;2022-12-05T14:35:45;11.43;;;4.57;;
56667;SDS011;42542;48.360;10.958;2022-12-05T14:38:49;30.37;;;11.47;;
56667;SDS011;42542;48.360;10.958;2022-12-05T14:41:57;14.63;;;6.10;;
56667;SDS011;42542;48.360;10.958;2022-12-05T14:45:03;11.73;;;4.38;;
56667;SDS011;42542;48.360;10.958;2022-12-05T14:54:42;11.27;;;4.00;;
56667;SDS011;42542;48.360;10.958;2022-12-05T14:57:45;11.07;;;4.22;;
56667;SDS011;42542;48.360;10.958;2022-12-05T15:00:53;11.93;;;4.23;;
56667;SDS011;42542;48.360;10.958;2022-12-05T15:04:15;14.52;;;4.78;;
56667;SDS011;42542;48.360;10.958;2022-12-05T15:07:41;12.20;;;4.78;;
56667;SDS011;42542;48.360;10.958;2022-12-05T15:10:44;16.70;;;6.13;;
56667;SDS011;42542;48.360;10.958;2022-12-05T15:13:48;14.13;;;5.43;;
56667;SDS011;42542;48.360;10.958;2022-12-05T15:16:52;12.15;;;4.88;;
56667;SDS011;42542;48.360;10.958;2022-12-05T15:20:07;11.93;;;4.78;;
56667;SDS011;42542;48.360;10.958;2022-12-05T15:26:44;18.98;;;6.70;;
56667;SDS011;42542;48.360;10.958;2022-12-05T15:29:52;24.92;;;9.15;;
56667;SDS011;42542;48.360;10.958;2022-12-05T15:32:55;31.70;;;11.60;;
56667;SDS011;42542;48.360;10.958;2022-12-05T15:36:00;24.10;;;9.52;;
56667;SDS011;42542;48.360;10.958;2022-12-05T15:39:05;14.57;;;5.63;;
56667;SDS011;42542;48.360;10.958;2022-12-05T15:42:19;14.57;;;5.63;;
56667;SDS011;42542;48.360;10.958;2022-12-05T15:45:30;12.00;;;5.20;;
56667;SDS011;42542;48.360;10.958;2022-12-05T15:48:32;18.35;;;7.10;;
56667;SDS011;42542;48.360;10.958;2022-12-05T15:51:35;14.05;;;5.47;;
56667;SDS011;42542;48.360;10.958;2022-12-05T15:54:38;17.02;;;5.20;;
56667;SDS011;42542;48.360;10.958;2022-12-05T15:57:41;17.50;;;6.68;;
56667;SDS011;42542;48.360;10.958;2022-12-05T16:00:47;17.63;;;7.18;;
56667;SDS011;42542;48.360;10.958;2022-12-05T16:04:09;18.50;;;8.70;;
56667;SDS011;42542;48.360;10.958;2022-12-05T16:07:38;15.38;;;8.23;;
56667;SDS011;42542;48.360;10.958;2022-12-05T16:10:40;18.23;;;8.10;;
56667;SDS011;42542;48.360;10.958;2022-12-05T16:13:45;18.57;;;9.03;;
56667;SDS011;42542;48.360;10.958;2022-12-05T16:16:51;19.20;;;8.98;;
56667;SDS011;42542;48.360;10.958;2022-12-05T16:20:19;19.25;;;8.80;;
56667;SDS011;42542;48.360;10.958;2022-12-05T16:23:25;19.95;;;8.15;;
56667;SDS011;42542;48.360;10.958;2022-12-05T16:26:28;24.02;;;8.52;;
56667;SDS011;42542;48.360;10.958;2022-12-05T16:29:32;21.30;;;9.15;;
56667;SDS011;42542;48.360;10.958;2022-12-05T16:32:35;18.92;;;8.05;;
56667;SDS011;42542;48.360;10.958;2022-12-05T16:38:46;18.25;;;8.32;;
56667;SDS011;42542;48.360;10.958;2022-12-05T16:41:47;19.55;;;8.73;;
56667;SDS011;42542;48.360;10.958;2022-12-05T16:48:08;19.27;;;8.48;;
56667;SDS011;42542;48.360;10.958;2022-12-05T16:51:17;20.80;;;8.90;;
56667;SDS011;42542;48.360;10.958;2022-12-05T16:54:25;20.35;;;9.45;;
56667;SDS011;42542;48.360;10.958;2022-12-05T16:57:27;26.42;;;11.48;;
56667;SDS011;42542;48.360;10.958;2022-12-05T17:00:28;36.15;;;17.40;;
56667;SDS011;42542;48.360;10.958;2022-12-05T17:03:33;28.52;;;14.20;;
56667;SDS011;42542;48.360;10.958;2022-12-05T17:06:36;22.07;;;10.93;;
56667;SDS011;42542;48.360;10.958;2022-12-05T17:09:39;20.48;;;8.77;;
56667;SDS011;42542;48.360;10.958;2022-12-05T17:12:41;16.60;;;7.55;;
56667;SDS011;42542;48.360;10.958;2022-12-05T17:15:48;18.87;;;8.77;;
56667;SDS011;42542;48.360;10.958;2022-12-05T17:18:50;17.35;;;8.32;;
56667;SDS011;42542;48.360;10.958;2022-12-05T17:21:52;19.35;;;8.48;;
56667;SDS011;42542;48.360;10.958;2022-12-05T17:24:55;19.08;;;7.78;;
56667;SDS011;42542;48.360;10.958;2022-12-05T17:28:00;15.25;;;6.90;;
56667;SDS011;42542;48.360;10.958;2022-12-05T17:31:02;15.68;;;7.03;;
56667;SDS011;42542;48.360;10.958;2022-12-05T17:34:05;18.25;;;7.47;;
56667;SDS011;42542;48.360;10.958;2022-12-05T17:37:15;16.67;;;7.37;;
56667;SDS011;42542;48.360;10.958;2022-12-05T17:40:17;15.98;;;7.10;;
56667;SDS011;42542;48.360;10.958;2022-12-05T17:43:18;15.27;;;6.70;;
56667;SDS011;42542;48.360;10.958;2022-12-05T17:46:25;15.13;;;6.97;;
56667;SDS011;42542;48.360;10.958;2022-12-05T17:49:27;16.73;;;7.18;;
56667;SDS011;42542;48.360;10.958;2022-12-05T17:52:29;18.40;;;7.97;;
56667;SDS011;42542;48.360;10.958;2022-12-05T17:55:31;20.65;;;8.40;;
56667;SDS011;42542;48.360;10.958;2022-12-05T17:58:32;25.05;;;10.15;;
56667;SDS011;42542;48.360;10.958;2022-12-05T18:01:34;25.20;;;10.27;;
56667;SDS011;42542;48.360;10.958;2022-12-05T18:04:36;22.73;;;9.88;;
56667;SDS011;42542;48.360;10.958;2022-12-05T18:07:38;24.30;;;9.20;;
56667;SDS011;42542;48.360;10.958;2022-12-05T18:10:45;15.68;;;6.78;;
56667;SDS011;42542;48.360;10.958;2022-12-05T18:13:48;12.50;;;5.63;;
56667;SDS011;42542;48.360;10.958;2022-12-05T18:16:50;13.07;;;5.37;;
56667;SDS011;42542;48.360;10.958;2022-12-05T18:19:52;12.98;;;5.43;;
56667;SDS011;42542;48.360;10.958;2022-12-05T18:22:56;13.77;;;5.05;;
56667;SDS011;42542;48.360;10.958;2022-12-05T18:25:58;14.35;;;5.10;;
56667;SDS011;42542;48.360;10.958;2022-12-05T18:29:00;12.68;;;5.68;;
56667;SDS011;42542;48.360;10.958;2022-12-05T18:32:01;15.00;;;6.55;;
56667;SDS011;42542;48.360;10.958;2022-12-05T18:35:03;14.85;;;6.68;;
56667;SDS011;42542;48.360;10.958;2022-12-05T18:38:13;18.63;;;7.93;;
56667;SDS011;42542;48.360;10.958;2022-12-05T18:41:14;16.58;;;6.63;;
56667;SDS011;42542;48.360;10.958;2022-12-05T18:44:16;16.88;;;6.43;;
56667;SDS011;42542;48.360;10.958;2022-12-05T18:47:18;15.00;;;6.40;;
56667;SDS011;42542;48.360;10.958;2022-12-05T18:50:20;13.60;;;5.72;;
56667;SDS011;42542;48.360;10.958;2022-12-05T18:53:24;15.15;;;6.32;;
56667;SDS011;42542;48.360;10.958;2022-12-05T18:56:27;14.57;;;5.75;;
56667;SDS011;42542;48.360;10.958;2022-12-05T18:59:32;18.73;;;6.20;;
56667;SDS011;42542;48.360;10.958;2022-12-05T19:02:34;14.10;;;5.82;;
56667;SDS011;42542;48.360;10.958;2022-12-05T19:05:36;14.48;;;6.20;;
56667;SDS011;42542;48.360;10.958;2022-12-05T19:08:38;19.60;;;6.57;;
56667;SDS011;42542;48.360;10.958;2022-12-05T19:11:40;16.58;;;6.72;;
56667;SDS011;42542;48.360;10.958;2022-12-05T19:14:47;14.50;;;6.40;;
56667;SDS011;42542;48.360;10.958;2022-12-05T19:17:49;14.80;;;6.87;;
56667;SDS011;42542;48.360;10.958;2022-12-05T19:20:51;15.32;;;6.35;;
56667;SDS011;42542;48.360;10.958;2022-12-05T19:23:52;14.55;;;6.22;;
56667;SDS011;42542;48.360;10.958;2022-12-05T19:26:54;13.38;;;5.85;;
56667;SDS011;42542;48.360;10.958;2022-12-05T19:29:56;15.63;;;5.90;;
56667;SDS011;42542;48.360;10.958;2022-12-05T19:32:58;15.30;;;5.53;;
56667;SDS011;42542;48.360;10.958;2022-12-05T19:36:03;15.88;;;6.10;;
56667;SDS011;42542;48.360;10.958;2022-12-05T19:39:08;13.07;;;5.60;;
56667;SDS011;42542;48.360;10.958;2022-12-05T19:42:24;15.48;;;6.00;;
56667;SDS011;42542;48.360;10.958;2022-12-05T19:45:25;14.02;;;6.00;;
56667;SDS011;42542;48.360;10.958;2022-12-05T19:48:27;15.40;;;5.90;;
56667;SDS011;42542;48.360;10.958;2022-12-05T19:51:30;14.30;;;5.88;;
56667;SDS011;42542;48.360;10.958;2022-12-05T19:54:33;14.45;;;6.10;;
56667;SDS011;42542;48.360;10.958;2022-12-05T19:57:34;16.25;;;6.30;;
56667;SDS011;42542;48.360;10.958;2022-12-05T20:00:37;14.27;;;6.10;;
56667;SDS011;42542;48.360;10.958;2022-12-05T20:03:39;15.25;;;6.40;;
56667;SDS011;42542;48.360;10.958;2022-12-05T20:06:44;17.95;;;7.05;;
56667;SDS011;42542;48.360;10.958;2022-12-05T20:09:48;15.37;;;6.10;;
56667;SDS011;42542;48.360;10.958;2022-12-05T20:12:49;15.65;;;7.35;;
56667;SDS011;42542;48.360;10.958;2022-12-05T20:15:51;15.50;;;6.97;;
56667;SDS011;42542;48.360;10.958;2022-12-05T20:18:53;16.47;;;7.27;;
56667;SDS011;42542;48.360;10.958;2022-12-05T20:21:58;16.17;;;7.10;;